Time;durP1;ratioP1;P1;durP2;ratioP2;P2;SDS_P1;SDS_P2;PMS_P1;PMS_P2;Temp;Humidity;BMP_temperature;BMP_pressure;BME280_temperature;BME280_humidity;BME280_pressure;Samples;Min_cycle;Max_cycle;Signal;HPM_P1;HPM_P2
2021/06/19 00:02:04;;;;;;;61.90;38.47;;;17.80;99.90;;;;;;5074033;28;20464;-77
2021/06/19 00:04:31;;;;;;;50.42;33.85;;;17.80;99.90;;;;;;5092987;28;20071;-75
2021/06/19 00:07:03;;;;;;;60.50;36.72;;;17.80;99.90;;;;;;5092043;28;20115;-76
2021/06/19 00:09:30;;;;;;;49.40;33.63;;;17.80;99.90;;;;;;5074496;28;20440;-75
2021/06/19 00:11:55;;;;;;;56.58;34.85;;;17.80;99.90;;;;;;5042918;28;20098;-75
2021/06/19 00:14:21;;;;;;;;;;;17.90;99.90;;;;;;5066615;28;20033;-75
2021/06/19 00:16:48;;;;;;;47.30;31.65;;;17.80;99.90;;;;;;5087351;28;19947;-78
2021/06/19 00:19:14;;;;;;;53.33;33.80;;;17.80;99.90;;;;;;5092670;28;20362;-78
2021/06/19 00:21:44;;;;;;;41.33;28.33;;;17.80;99.90;;;;;;5063329;28;20040;-76
2021/06/19 00:24:11;;;;;;;55.65;32.67;;;17.80;99.90;;;;;;5092633;28;20036;-76
2021/06/19 00:26:38;;;;;;;47.13;31.55;;;17.70;99.90;;;;;;5076512;28;20040;-78
2021/06/19 00:29:04;;;;;;;54.50;35.17;;;17.70;99.90;;;;;;5073379;28;20536;-77
2021/06/19 00:31:31;;;;;;;47.75;31.45;;;17.70;99.90;;;;;;5074245;28;20050;-75
2021/06/19 00:33:58;;;;;;;44.80;29.48;;;17.70;99.90;;;;;;5091824;28;20035;-76
2021/06/19 00:36:23;;;;;;;51.97;31.15;;;17.70;99.90;;;;;;5092017;28;20036;-74
2021/06/19 00:38:49;;;;;;;;;;;17.70;99.90;;;;;;5092039;28;20553;-76
2021/06/19 00:41:15;;;;;;;51.80;31.58;;;17.70;99.90;;;;;;5091258;28;19969;-76
2021/06/19 00:43:41;;;;;;;;;;;17.80;99.90;;;;;;5092771;28;20123;-76
2021/06/19 00:46:07;;;;;;;44.22;30.73;;;17.80;99.90;;;;;;5091445;28;20092;-75
2021/06/19 00:48:33;;;;;;;40.97;30.15;;;17.80;99.90;;;;;;5065417;28;20048;-79
2021/06/19 00:50:58;;;;;;;;;;;17.90;99.90;;;;;;5087376;28;20043;-75
2021/06/19 00:53:24;;;;;;;51.28;31.25;;;17.90;99.90;;;;;;5092328;28;19916;-77
2021/06/19 00:55:50;;;;;;;;;;;17.90;99.90;;;;;;5059510;28;20086;-77
2021/06/19 00:58:16;;;;;;;49.50;31.33;;;17.90;99.90;;;;;;5092092;28;19919;-78
2021/06/19 01:00:43;;;;;;;44.92;30.15;;;17.90;99.90;;;;;;5043750;28;20037;-78
2021/06/19 01:03:09;;;;;;;;;;;17.90;99.90;;;;;;5064870;28;20111;-77
2021/06/19 01:05:35;;;;;;;43.67;29.23;;;17.90;99.90;;;;;;5086813;28;19920;-75
2021/06/19 01:08:01;;;;;;;;;;;17.90;99.90;;;;;;5091725;28;20040;-75
2021/06/19 01:10:28;;;;;;;43.25;31.30;;;17.90;99.90;;;;;;5090231;28;19920;-76
2021/06/19 01:12:54;;;;;;;43.80;30.20;;;17.90;99.90;;;;;;5091064;28;20115;-78
2021/06/19 01:15:21;;;;;;;38.35;29.27;;;17.90;99.90;;;;;;5073292;28;20036;-76
2021/06/19 01:17:47;;;;;;;40.33;30.25;;;17.90;99.90;;;;;;5073412;28;20439;-75
2021/06/19 01:20:14;;;;;;;;;;;17.90;99.90;;;;;;5091662;28;20040;-76
2021/06/19 01:22:43;;;;;;;47.13;31.17;;;17.90;99.90;;;;;;5091667;28;19955;-78
2021/06/19 01:25:11;;;;;;;44.72;31.65;;;17.80;99.90;;;;;;5086090;28;20131;-78
2021/06/19 01:27:38;;;;;;;43.53;31.38;;;17.80;99.90;;;;;;5063916;28;20054;-76
2021/06/19 01:30:07;;;;;;;46.10;32.67;;;17.80;99.90;;;;;;5090323;28;20478;-78
2021/06/19 01:32:35;;;;;;;42.35;30.38;;;17.80;99.90;;;;;;5085722;28;20037;-77
2021/06/19 01:35:01;;;;;;;45.88;32.47;;;17.80;99.90;;;;;;5070070;28;20117;-78
2021/06/19 01:37:27;;;;;;;;;;;17.80;99.90;;;;;;5062751;28;20041;-78
2021/06/19 01:40:06;;;;;;;47.67;33.03;;;17.80;99.90;;;;;;5087342;28;19920;-77
2021/06/19 01:42:32;;;;;;;45.78;30.88;;;17.80;99.90;;;;;;5091613;28;20272;-78
2021/06/19 01:44:58;;;;;;;47.40;30.80;;;17.80;99.90;;;;;;5090671;28;20071;-77
2021/06/19 01:47:27;;;;;;;;;;;17.80;99.90;;;;;;5092068;28;20063;-77
2021/06/19 01:49:53;;;;;;;42.90;31.20;;;17.80;99.90;;;;;;5052394;28;19920;-76
2021/06/19 01:52:19;;;;;;;;;;;17.70;99.90;;;;;;5053639;28;20367;-76
2021/06/19 01:54:44;;;;;;;43.88;31.42;;;17.80;99.90;;;;;;5068970;28;19920;-75
2021/06/19 01:57:10;;;;;;;;;;;17.80;99.90;;;;;;5052260;28;20085;-77
2021/06/19 01:59:36;;;;;;;45.80;32.25;;;17.80;99.90;;;;;;5089984;28;19916;-76
2021/06/19 02:02:03;;;;;;;41.17;30.98;;;17.80;99.90;;;;;;5090460;28;20405;-75
2021/06/19 02:04:33;;;;;;;44.70;31.38;;;17.80;99.90;;;;;;5090742;28;20508;-77
2021/06/19 02:06:59;;;;;;;40.35;30.55;;;17.90;99.90;;;;;;5090128;28;20493;-78
2021/06/19 02:09:25;;;;;;;48.10;32.00;;;17.90;99.90;;;;;;5090741;28;20040;-77
2021/06/19 02:11:51;;;;;;;;;;;17.90;99.90;;;;;;5089773;28;20032;-78
2021/06/19 02:14:17;;;;;;;49.40;33.88;;;17.90;99.90;;;;;;5091063;28;19916;-76
2021/06/19 02:16:43;;;;;;;;;;;17.90;99.90;;;;;;5091369;28;20496;-76
2021/06/19 02:19:09;;;;;;;44.33;33.15;;;17.90;99.90;;;;;;5089638;28;19991;-77
2021/06/19 02:21:35;;;;;;;;;;;17.90;99.90;;;;;;5047149;28;20036;-77
2021/06/19 02:24:01;;;;;;;56.47;37.20;;;18.00;99.90;;;;;;5090761;28;19916;-77
2021/06/19 02:26:26;;;;;;;;;;;17.90;99.90;;;;;;5076307;28;20047;-77
2021/06/19 02:28:52;;;;;;;57.78;37.75;;;18.00;99.90;;;;;;5090210;28;19924;-78
2021/06/19 02:31:19;;;;;;;;;;;18.00;99.90;;;;;;5091726;28;20040;-77
2021/06/19 02:33:47;;;;;;;59.08;36.97;;;18.10;99.90;;;;;;5058030;28;20230;-77
2021/06/19 02:36:12;;;;;;;53.17;36.95;;;18.00;99.90;;;;;;5084919;28;20471;-78
2021/06/19 02:38:38;;;;;;;;;;;18.10;99.90;;;;;;5091689;28;20123;-78
2021/06/19 02:41:04;;;;;;;51.80;36.53;;;18.10;99.90;;;;;;5089314;28;19920;-77
2021/06/19 02:43:30;;;;;;;;;;;18.10;99.90;;;;;;5091375;28;20123;-75
2021/06/19 02:45:59;;;;;;;45.85;33.05;;;18.20;99.90;;;;;;5059292;28;19917;-76
2021/06/19 02:48:28;;;;;;;47.70;35.03;;;18.20;99.90;;;;;;5090967;28;20044;-77
2021/06/19 02:50:54;;;;;;;43.22;31.80;;;18.20;99.90;;;;;;5092500;28;20036;-76
2021/06/19 02:53:20;;;;;;;47.47;33.97;;;18.20;99.90;;;;;;5094271;28;20088;-78
2021/06/19 02:55:46;;;;;;;;;;;18.20;99.90;;;;;;5062387;28;20142;-78
2021/06/19 02:58:14;;;;;;;41.28;29.95;;;18.20;99.90;;;;;;5094150;28;19916;-76
2021/06/19 03:00:40;;;;;;;39.50;30.27;;;18.30;99.90;;;;;;5092218;28;20086;-75
2021/06/19 03:03:08;;;;;;;47.60;33.25;;;18.30;99.90;;;;;;5093781;28;20386;-77
2021/06/19 03:05:35;;;;;;;46.55;32.40;;;18.30;99.90;;;;;;5045749;28;20173;-76
2021/06/19 03:08:02;;;;;;;46.00;33.20;;;18.30;99.90;;;;;;5092973;28;20058;-74
2021/06/19 03:10:30;;;;;;;41.35;30.48;;;18.40;99.90;;;;;;5092144;28;20040;-76
2021/06/19 03:12:57;;;;;;;38.70;29.23;;;18.30;99.90;;;;;;5093496;28;20089;-77
2021/06/19 03:15:24;;;;;;;40.50;30.45;;;18.40;99.90;;;;;;5093547;28;20040;-79
2021/06/19 03:17:50;;;;;;;39.85;29.23;;;18.40;99.90;;;;;;5093903;28;20036;-78
2021/06/19 03:20:18;;;;;;;43.38;31.13;;;18.40;99.90;;;;;;5092647;28;20439;-76
2021/06/19 03:22:56;;;;;;;38.70;29.00;;;18.40;99.90;;;;;;5075605;28;20517;-74
2021/06/19 03:25:27;;;;;;;40.30;30.15;;;18.50;99.90;;;;;;5087334;28;20040;-74
2021/06/19 03:27:53;;;;;;;40.22;30.65;;;18.40;99.90;;;;;;5085688;28;20043;-78
2021/06/19 03:30:20;;;;;;;41.88;31.27;;;18.40;99.90;;;;;;5093206;28;20036;-75
2021/06/19 03:32:48;;;;;;;35.78;28.73;;;18.50;99.90;;;;;;5085874;28;20040;-77
2021/06/19 03:35:14;;;;;;;43.90;30.65;;;18.40;99.90;;;;;;5091663;28;20469;-75
2021/06/19 03:37:41;;;;;;;41.47;30.48;;;18.40;99.90;;;;;;5092876;28;20040;-76
2021/06/19 03:40:09;;;;;;;38.38;29.42;;;18.50;99.90;;;;;;5091028;28;20084;-74
2021/06/19 03:42:36;;;;;;;43.28;30.38;;;18.40;99.90;;;;;;5075231;28;20047;-76
2021/06/19 03:45:03;;;;;;;42.80;31.10;;;18.50;99.90;;;;;;5092530;28;20505;-77
2021/06/19 03:47:29;;;;;;;40.45;30.17;;;18.50;99.90;;;;;;5093198;28;20051;-74
2021/06/19 03:49:55;;;;;;;42.20;30.42;;;18.50;99.90;;;;;;5054523;28;20032;-77
2021/06/19 03:52:20;;;;;;;;;;;18.60;99.90;;;;;;5087937;28;20056;-77
2021/06/19 03:54:47;;;;;;;37.92;29.20;;;18.60;99.90;;;;;;5093067;28;19920;-75
2021/06/19 03:57:26;;;;;;;39.58;28.58;;;18.60;99.90;;;;;;5061390;28;20041;-76
2021/06/19 03:59:52;;;;;;;37.33;29.15;;;18.60;99.90;;;;;;5067240;28;20032;-75
2021/06/19 04:02:19;;;;;;;41.35;30.27;;;18.60;99.90;;;;;;5088439;28;20047;-78
2021/06/19 04:04:49;;;;;;;41.30;28.95;;;18.60;99.90;;;;;;5078241;28;20044;-75
2021/06/19 04:07:16;;;;;;;39.80;27.98;;;18.60;99.90;;;;;;5093557;28;20043;-76
2021/06/19 04:09:47;;;;;;;43.63;31.58;;;18.70;99.90;;;;;;5074863;28;20036;-76
2021/06/19 04:12:14;;;;;;;36.60;27.17;;;18.70;99.90;;;;;;5092588;28;20358;-76
2021/06/19 04:14:40;;;;;;;40.35;30.80;;;18.80;99.90;;;;;;5085252;28;20089;-76
2021/06/19 04:17:08;;;;;;;35.63;27.85;;;18.80;99.90;;;;;;5092238;28;20035;-74
2021/06/19 04:19:36;;;;;;;34.08;27.92;;;18.80;99.90;;;;;;5092477;28;20085;-76
2021/06/19 04:22:06;;;;;;;33.63;26.38;;;18.80;99.90;;;;;;5078450;28;20051;-75
2021/06/19 04:24:33;;;;;;;40.08;30.35;;;18.80;99.90;;;;;;5075903;28;20119;-75
2021/06/19 04:26:59;;;;;;;38.45;28.27;;;18.90;99.90;;;;;;5059790;28;20044;-75
2021/06/19 04:29:27;;;;;;;32.33;26.15;;;18.90;99.90;;;;;;5092669;28;20063;-76
2021/06/19 04:31:54;;;;;;;32.42;26.48;;;18.90;99.90;;;;;;5056380;28;20086;-76
2021/06/19 04:34:21;;;;;;;35.65;27.95;;;18.90;99.90;;;;;;5085137;28;20088;-75
2021/06/19 04:36:46;;;;;;;38.67;28.17;;;18.90;99.90;;;;;;5093331;28;20047;-77
2021/06/19 04:39:12;;;;;;;38.15;28.98;;;18.90;99.90;;;;;;5092839;28;20496;-78
2021/06/19 04:47:03;;;;;;;43.22;30.15;;;19.00;99.90;;;;;;5053870;28;20064;-77
2021/06/19 04:49:28;;;;;;;30.65;23.80;;;19.20;99.90;;;;;;5091681;28;20039;-74
2021/06/19 04:51:54;;;;;;;32.45;25.80;;;19.30;99.90;;;;;;5092167;28;20032;-75
2021/06/19 04:54:20;;;;;;;;;;;19.30;99.90;;;;;;5057291;28;20044;-77
2021/06/19 04:56:46;;;;;;;34.03;27.85;;;19.30;99.90;;;;;;5080952;28;19998;-75
2021/06/19 04:59:12;;;;;;;32.92;24.10;;;19.30;99.90;;;;;;5091855;28;20032;-76
2021/06/19 05:01:39;;;;;;;32.13;25.17;;;19.30;99.90;;;;;;5092550;28;20047;-78
2021/06/19 05:04:05;;;;;;;33.38;25.48;;;19.30;99.90;;;;;;5091551;28;20054;-77
2021/06/19 05:06:33;;;;;;;30.85;25.05;;;19.30;99.90;;;;;;5091489;28;20123;-77
2021/06/19 05:08:59;;;;;;;35.53;27.10;;;19.30;99.90;;;;;;5091014;28;20039;-74
2021/06/19 05:11:25;;;;;;;33.70;25.30;;;19.40;99.90;;;;;;5046549;28;20055;-74
2021/06/19 05:13:50;;;;;;;31.45;24.52;;;19.50;99.90;;;;;;5089150;28;20401;-75
2021/06/19 05:16:16;;;;;;;;;;;19.60;99.90;;;;;;5091657;28;20702;-77
2021/06/19 05:18:42;;;;;;;30.00;23.33;;;19.60;99.90;;;;;;5057114;28;19928;-74
2021/06/19 05:21:07;;;;;;;;;;;19.70;99.90;;;;;;5086787;28;20115;-74
2021/06/19 05:23:33;;;;;;;27.38;21.67;;;19.70;99.90;;;;;;5092308;28;19926;-77
2021/06/19 05:25:59;;;;;;;;;;;19.60;99.90;;;;;;5090755;28;20101;-76
2021/06/19 05:28:25;;;;;;;31.75;22.80;;;19.60;99.90;;;;;;5091896;28;19919;-77
2021/06/19 05:30:50;;;;;;;;;;;19.50;99.90;;;;;;5092983;28;20040;-75
2021/06/19 05:33:17;;;;;;;30.17;23.08;;;19.50;99.90;;;;;;5083574;28;19927;-78
2021/06/19 05:35:43;;;;;;;27.45;22.17;;;19.40;99.90;;;;;;5090824;28;20089;-76
2021/06/19 05:38:09;;;;;;;27.65;21.95;;;19.50;99.90;;;;;;5090352;28;20131;-75
2021/06/19 05:40:34;;;;;;;;;;;19.50;99.90;;;;;;5091513;28;20032;-77
2021/06/19 05:43:00;;;;;;;30.20;23.58;;;19.40;99.90;;;;;;5093426;28;19916;-75
2021/06/19 05:45:26;;;;;;;27.50;22.13;;;19.40;99.90;;;;;;5092500;28;20040;-76
2021/06/19 05:47:52;;;;;;;29.02;21.20;;;19.50;99.90;;;;;;5059832;28;20052;-77
2021/06/19 05:50:18;;;;;;;27.40;20.45;;;19.50;99.90;;;;;;5072722;28;20044;-75
2021/06/19 05:52:44;;;;;;;;;;;19.50;99.90;;;;;;5091975;28;20064;-78
2021/06/19 05:55:10;;;;;;;26.70;19.30;;;19.70;99.90;;;;;;5090428;28;19916;-77
2021/06/19 05:57:37;;;;;;;25.50;19.65;;;19.70;99.90;;;;;;5091522;28;20048;-74
2021/06/19 06:00:08;;;;;;;31.38;17.80;;;19.70;99.90;;;;;;5090331;28;20404;-77
2021/06/19 06:02:33;;;;;;;24.48;18.70;;;19.80;99.90;;;;;;5091299;28;20087;-74
2021/06/19 06:04:59;;;;;;;25.33;18.52;;;19.80;99.90;;;;;;5063029;28;20041;-75
2021/06/19 06:07:25;;;;;;;24.98;18.35;;;19.90;99.90;;;;;;5070220;28;20044;-76
2021/06/19 06:09:51;;;;;;;24.38;16.65;;;20.10;99.90;;;;;;5091627;28;20042;-76
2021/06/19 06:12:17;;;;;;;;;;;20.20;99.90;;;;;;5091260;28;20040;-76
2021/06/19 06:14:43;;;;;;;20.52;15.95;;;20.20;99.90;;;;;;5091402;28;19920;-75
2021/06/19 06:17:10;;;;;;;18.77;15.23;;;20.30;99.90;;;;;;5090841;28;20051;-78
2021/06/19 06:19:36;;;;;;;16.17;13.00;;;20.30;99.90;;;;;;5091334;28;20036;-77
2021/06/19 06:22:03;;;;;;;17.23;13.70;;;20.30;99.90;;;;;;5063372;28;20105;-78
2021/06/19 06:24:29;;;;;;;17.92;14.25;;;20.20;99.90;;;;;;5092649;28;20092;-77
2021/06/19 06:26:55;;;;;;;18.13;13.55;;;20.40;99.90;;;;;;5080272;28;20119;-76
2021/06/19 06:29:21;;;;;;;17.02;13.63;;;20.50;99.90;;;;;;5093966;28;20107;-76
2021/06/19 06:31:47;;;;;;;;;;;20.50;99.90;;;;;;5059427;28;20060;-76
2021/06/19 06:34:13;;;;;;;15.48;12.73;;;20.50;99.90;;;;;;5085087;28;20264;-78
2021/06/19 06:36:39;;;;;;;15.48;12.85;;;20.60;99.90;;;;;;5094476;28;20120;-76
2021/06/19 06:39:05;;;;;;;14.05;12.38;;;20.40;99.90;;;;;;5061631;28;20127;-78
2021/06/19 06:41:31;;;;;;;;;;;20.50;99.90;;;;;;5071866;28;20040;-78
2021/06/19 06:43:57;;;;;;;17.30;14.10;;;20.50;99.90;;;;;;5072939;28;19916;-76
2021/06/19 06:46:23;;;;;;;15.50;13.88;;;20.50;99.90;;;;;;5074516;28;20131;-76
2021/06/19 06:48:48;;;;;;;15.75;13.27;;;20.50;99.90;;;;;;5074598;28;20124;-77
2021/06/19 06:51:15;;;;;;;16.45;14.32;;;20.50;99.90;;;;;;5073956;28;20037;-77
2021/06/19 06:53:41;;;;;;;18.10;14.05;;;20.40;99.90;;;;;;5074558;28;20041;-77
2021/06/19 06:56:06;;;;;;;16.20;13.73;;;20.40;99.90;;;;;;5073251;28;20413;-75
2021/06/19 06:58:32;;;;;;;;;;;20.50;99.90;;;;;;5073838;28;20036;-78
2021/06/19 07:00:59;;;;;;;15.70;12.75;;;20.60;99.90;;;;;;5074939;28;19916;-75
2021/06/19 07:03:25;;;;;;;22.25;15.02;;;20.70;99.90;;;;;;5056197;28;20041;-73
2021/06/19 07:05:51;;;;;;;15.10;13.32;;;20.90;99.90;;;;;;5075057;28;20032;-78
2021/06/19 07:08:18;;;;;;;16.83;13.40;;;21.00;99.90;;;;;;5073521;28;20041;-77
2021/06/19 07:10:43;;;;;;;17.00;12.43;;;21.00;99.90;;;;;;5073793;28;20115;-74
2021/06/19 07:13:09;;;;;;;15.27;13.10;;;20.80;99.90;;;;;;5073251;28;20123;-75
2021/06/19 07:15:35;;;;;;;;;;;20.70;99.90;;;;;;5074373;28;20032;-76
2021/06/19 07:18:02;;;;;;;13.57;11.68;;;20.60;99.90;;;;;;5073875;28;19948;-76
2021/06/19 07:20:27;;;;;;;14.32;11.60;;;20.50;99.90;;;;;;5060641;28;20041;-79
2021/06/19 07:22:53;;;;;;;14.13;11.68;;;20.50;99.90;;;;;;5069224;28;20044;-75
2021/06/19 07:25:20;;;;;;;14.57;11.88;;;20.50;99.90;;;;;;5053945;28;20048;-75
2021/06/19 07:27:53;;;;;;;15.68;11.80;;;20.60;99.90;;;;;;5058939;28;20061;-76
2021/06/19 07:30:20;;;;;;;11.38;10.00;;;20.60;99.90;;;;;;5078368;28;20114;-72
2021/06/19 07:32:46;;;;;;;13.35;11.70;;;20.60;99.90;;;;;;5075813;28;20040;-78
2021/06/19 07:35:12;;;;;;;14.80;11.50;;;20.60;99.90;;;;;;5074089;28;20398;-77
2021/06/19 07:37:38;;;;;;;14.98;11.48;;;20.50;99.90;;;;;;5072019;28;20041;-77
2021/06/19 07:40:05;;;;;;;14.85;11.23;;;20.40;99.90;;;;;;5090525;28;20100;-76
2021/06/19 07:42:31;;;;;;;13.50;11.63;;;20.30;99.90;;;;;;5076260;28;20071;-76
2021/06/19 07:44:57;;;;;;;16.00;11.40;;;20.30;99.90;;;;;;5094016;28;20036;-80
2021/06/19 07:47:23;;;;;;;15.48;11.80;;;20.50;99.90;;;;;;5059081;28;20071;-76
2021/06/19 07:49:49;;;;;;;14.35;10.77;;;20.50;99.90;;;;;;5093275;28;20118;-78
2021/06/19 07:52:15;;;;;;;16.65;11.75;;;20.60;99.90;;;;;;5093533;28;20473;-76
2021/06/19 07:54:40;;;;;;;15.75;12.02;;;20.60;99.90;;;;;;5093620;28;20044;-76
2021/06/19 07:57:07;;;;;;;17.75;12.18;;;20.60;99.90;;;;;;5093057;28;20477;-76
2021/06/19 07:59:34;;;;;;;17.65;13.55;;;20.50;99.90;;;;;;5093545;28;20496;-75
2021/06/19 08:02:00;;;;;;;16.42;12.75;;;20.60;99.90;;;;;;5093927;28;20105;-77
2021/06/19 08:04:27;;;;;;;16.00;12.23;;;20.60;99.90;;;;;;5093438;28;20044;-79
2021/06/19 08:06:53;;;;;;;17.92;12.63;;;20.60;99.90;;;;;;5063528;28;20465;-77
2021/06/19 08:09:20;;;;;;;15.27;11.48;;;20.60;99.90;;;;;;5099310;28;20119;-75
2021/06/19 08:11:46;;;;;;;14.88;12.07;;;20.60;99.90;;;;;;5092297;28;20115;-75
2021/06/19 08:14:13;;;;;;;;;;;20.60;99.90;;;;;;5093411;28;20044;-75
2021/06/19 08:16:39;;;;;;;;;;;20.70;99.90;;;;;;5076242;28;19977;-76
2021/06/19 08:19:04;;;;;;;14.43;9.75;;;21.00;99.90;;;;;;5075462;28;19924;-76
2021/06/19 08:21:30;;;;;;;11.32;9.23;;;21.30;99.90;;;;;;5092316;28;20077;-78
2021/06/19 08:23:56;;;;;;;;;;;21.50;99.90;;;;;;5093253;28;20036;-78
2021/06/19 08:26:22;;;;;;;11.70;9.13;;;21.50;99.90;;;;;;5059959;28;19999;-75
2021/06/19 08:28:48;;;;;;;13.73;9.93;;;21.50;99.90;;;;;;5092951;28;20039;-75
2021/06/19 08:31:14;;;;;;;11.43;8.80;;;21.50;99.90;;;;;;5092578;28;20036;-76
2021/06/19 08:33:40;;;;;;;12.73;8.93;;;21.40;99.90;;;;;;5087916;28;20039;-78
2021/06/19 08:36:06;;;;;;;10.52;8.27;;;21.30;99.90;;;;;;5092728;28;20039;-77
2021/06/19 08:38:32;;;;;;;11.63;8.27;;;21.30;99.90;;;;;;5079411;28;20120;-76
2021/06/19 08:41:00;;;;;;;13.73;8.30;;;21.10;99.90;;;;;;5090851;28;20130;-77
2021/06/19 08:43:26;;;;;;;12.25;8.93;;;21.10;99.90;;;;;;5092957;28;20135;-76
2021/06/19 08:45:52;;;;;;;12.88;8.35;;;21.20;99.90;;;;;;5076050;28;20119;-77
2021/06/19 08:48:20;;;;;;;11.80;8.98;;;21.40;99.90;;;;;;5091965;28;20123;-78
2021/06/19 08:50:47;;;;;;;10.75;8.85;;;21.60;99.90;;;;;;5092782;28;20035;-75
2021/06/19 08:53:13;;;;;;;11.15;8.88;;;21.80;99.90;;;;;;5078761;28;20040;-77
2021/06/19 08:55:39;;;;;;;13.65;8.85;;;21.90;99.90;;;;;;5091926;28;20166;-77
2021/06/19 08:58:05;;;;;;;10.85;9.38;;;22.10;99.90;;;;;;5093519;28;20536;-79
2021/06/19 09:00:31;;;;;;;13.23;9.18;;;22.00;99.90;;;;;;5091997;28;20112;-78
2021/06/19 09:02:57;;;;;;;10.50;8.52;;;21.90;99.90;;;;;;5092184;28;20059;-75
2021/06/19 09:05:30;;;;;;;11.68;8.85;;;21.90;99.90;;;;;;5090951;28;20378;-75
2021/06/19 09:07:58;;;;;;;11.55;9.05;;;22.00;99.90;;;;;;5091740;28;20051;-76
2021/06/19 09:10:37;;;;;;;11.27;8.57;;;21.90;99.90;;;;;;5089704;28;20106;-76
2021/06/19 09:13:11;;;;;;;9.75;7.80;;;21.90;99.90;;;;;;5092090;28;20048;-75
2021/06/19 09:15:54;;;;;;;9.48;8.00;;;22.00;99.90;;;;;;5091619;28;20044;-77
2021/06/19 09:18:27;;;;;;;10.98;8.85;;;22.20;99.90;;;;;;5091881;28;20036;-75
2021/06/19 09:21:02;;;;;;;12.48;8.68;;;22.40;99.90;;;;;;5085257;28;20042;-78
2021/06/19 09:23:34;;;;;;;12.65;10.05;;;22.30;99.90;;;;;;5092058;28;20140;-76
2021/06/19 09:26:11;;;;;;;12.35;10.05;;;22.30;99.90;;;;;;5080502;28;20322;-75
2021/06/19 09:29:07;;;;;;;12.70;10.20;;;22.00;99.90;;;;;;5091220;28;20094;-77
2021/06/19 09:31:50;;;;;;;13.68;11.10;;;21.90;99.90;;;;;;5091467;28;20040;-76
2021/06/19 09:34:23;;;;;;;12.55;10.20;;;21.70;99.90;;;;;;5091339;28;20036;-76
2021/06/19 09:37:08;;;;;;;12.88;10.55;;;21.60;99.90;;;;;;5091130;28;20160;-77
2021/06/19 09:39:35;;;;;;;12.55;10.18;;;21.70;99.90;;;;;;5091638;28;20360;-77
2021/06/19 09:42:08;;;;;;;13.15;10.55;;;21.80;99.90;;;;;;5090819;28;20113;-77
2021/06/19 09:44:45;;;;;;;13.68;9.70;;;21.80;99.90;;;;;;5073465;28;20036;-79
2021/06/19 09:47:13;;;;;;;11.35;9.43;;;21.90;99.90;;;;;;5091941;28;20040;-76
2021/06/19 09:49:42;;;;;;;11.63;10.05;;;22.00;99.90;;;;;;5092063;28;20039;-75
2021/06/19 09:52:12;;;;;;;11.98;9.50;;;22.10;99.90;;;;;;5091828;28;20032;-76
2021/06/19 09:54:44;;;;;;;11.65;9.77;;;22.20;99.90;;;;;;5072634;28;20047;-76
2021/06/19 09:57:14;;;;;;;12.88;10.13;;;22.40;99.90;;;;;;5090195;28;20040;-76
2021/06/19 09:59:43;;;;;;;11.60;10.43;;;22.40;99.90;;;;;;5079787;28;20040;-77
2021/06/19 10:02:28;;;;;;;11.82;9.75;;;22.40;99.90;;;;;;5090974;28;20066;-76
2021/06/19 10:04:56;;;;;;;10.95;9.77;;;22.60;99.90;;;;;;5064485;28;20051;-76
2021/06/19 10:07:24;;;;;;;12.15;9.65;;;22.40;99.90;;;;;;5091656;28;20471;-75
2021/06/19 10:09:52;;;;;;;12.65;9.75;;;22.40;99.90;;;;;;5093611;28;20036;-75
2021/06/19 10:12:30;;;;;;;11.00;9.90;;;22.60;99.90;;;;;;5090751;28;20040;-77
2021/06/19 10:15:00;;;;;;;10.85;9.25;;;22.70;99.90;;;;;;5073358;28;20055;-76
2021/06/19 10:17:35;;;;;;;12.20;10.13;;;22.80;99.90;;;;;;5073996;28;20039;-78
2021/06/19 10:20:02;;;;;;;11.63;10.40;;;23.00;99.90;;;;;;5070244;28;20371;-75
2021/06/19 10:22:31;;;;;;;12.32;10.45;;;23.10;99.90;;;;;;5091047;28;20444;-77
2021/06/19 10:25:01;;;;;;;10.85;9.65;;;22.80;99.90;;;;;;5070513;28;20060;-77
2021/06/19 10:27:30;;;;;;;13.30;10.48;;;22.60;99.90;;;;;;5079601;28;20139;-75
2021/06/19 10:30:00;;;;;;;12.32;11.00;;;22.40;99.90;;;;;;5091267;28;20050;-76
2021/06/19 10:32:47;;;;;;;12.65;10.38;;;22.40;99.90;;;;;;5086062;28;20052;-78
2021/06/19 10:35:16;;;;;;;11.75;10.52;;;22.60;99.90;;;;;;5090089;28;20523;-76
2021/06/19 10:37:43;;;;;;;12.32;10.55;;;22.80;99.90;;;;;;5091748;28;20511;-78
2021/06/19 10:40:24;;;;;;;14.13;12.40;;;22.90;99.90;;;;;;5089696;28;20040;-76
2021/06/19 10:42:52;;;;;;;13.38;12.05;;;22.90;99.90;;;;;;5091134;28;20529;-76
2021/06/19 10:45:24;;;;;;;13.52;12.23;;;22.80;99.90;;;;;;5090962;28;20040;-78
2021/06/19 10:48:06;;;;;;;12.68;11.25;;;22.90;99.90;;;;;;5072851;28;20044;-79
2021/06/19 10:50:33;;;;;;;13.27;11.98;;;22.90;99.90;;;;;;5090717;28;20103;-77
2021/06/19 10:53:09;;;;;;;13.00;11.60;;;22.90;99.90;;;;;;5091631;28;20039;-75
2021/06/19 10:55:56;;;;;;;12.65;11.35;;;23.00;99.90;;;;;;5071623;28;20047;-77
2021/06/19 10:58:35;;;;;;;12.10;10.82;;;23.10;99.90;;;;;;5073081;28;20036;-76
2021/06/19 11:01:05;;;;;;;12.75;11.45;;;23.10;99.90;;;;;;5073111;28;20557;-77
2021/06/19 11:03:44;;;;;;;11.98;10.52;;;23.10;99.90;;;;;;5090994;28;20482;-78
2021/06/19 11:06:20;;;;;;;12.90;11.60;;;23.20;99.90;;;;;;5078265;28;20038;-77
2021/06/19 11:09:03;;;;;;;14.60;12.57;;;23.60;99.90;;;;;;5090420;28;20036;-79
2021/06/19 11:11:56;;;;;;;13.85;12.45;;;23.80;99.90;;;;;;5091694;28;20036;-76
2021/06/19 11:14:42;;;;;;;15.77;11.40;;;24.00;99.90;;;;;;5078656;28;20048;-75
2021/06/19 11:17:15;;;;;;;12.80;11.50;;;24.10;99.90;;;;;;5062935;28;20036;-76
2021/06/19 11:19:49;;;;;;;12.93;10.85;;;24.40;99.90;;;;;;5094164;28;20036;-75
2021/06/19 11:22:39;;;;;;;14.30;11.80;;;24.10;99.90;;;;;;5093945;28;20119;-79
2021/06/19 11:25:21;;;;;;;13.32;11.98;;;23.90;99.90;;;;;;5091220;28;20531;-76
2021/06/19 11:28:01;;;;;;;13.60;12.02;;;24.00;99.90;;;;;;5086500;28;20035;-75
2021/06/19 11:30:33;;;;;;;14.43;12.68;;;24.10;99.90;;;;;;5063250;28;20039;-77
2021/06/19 11:33:35;;;;;;;14.15;12.63;;;24.00;99.90;;;;;;5094583;28;20068;-76
2021/06/19 11:36:01;;;;;;;14.35;12.75;;;23.80;99.90;;;;;;5024064;28;20052;-77
2021/06/19 11:38:44;;;;;;;14.77;12.57;;;23.70;99.90;;;;;;5093489;28;20044;-79
2021/06/19 11:41:11;;;;;;;14.32;12.45;;;23.80;99.90;;;;;;5093049;28;20048;-79
2021/06/19 11:43:37;;;;;;;13.98;12.60;;;23.70;99.90;;;;;;5075235;28;20105;-78
2021/06/19 11:46:03;;;;;;;14.88;13.38;;;23.60;99.90;;;;;;5093694;28;20123;-79
2021/06/19 11:48:28;;;;;;;14.73;13.23;;;23.60;99.90;;;;;;5093069;28;20516;-79
2021/06/19 11:51:05;;;;;;;14.18;12.77;;;23.60;99.90;;;;;;5075146;28;20111;-77
2021/06/19 11:53:38;;;;;;;14.40;12.90;;;23.60;99.90;;;;;;5076358;28;20060;-76
2021/06/19 11:56:16;;;;;;;14.20;12.85;;;23.60;99.90;;;;;;5093232;28;20116;-76
2021/06/19 11:58:55;;;;;;;14.20;12.80;;;23.80;99.90;;;;;;5093620;28;20047;-78
2021/06/19 12:01:26;;;;;;;14.98;13.48;;;23.70;99.90;;;;;;5081360;28;20047;-77
2021/06/19 12:03:52;;;;;;;14.88;13.38;;;23.80;99.90;;;;;;5093568;28;20044;-77
2021/06/19 12:06:38;;;;;;;15.10;13.13;;;23.70;99.90;;;;;;5093692;28;20044;-77
2021/06/19 12:09:15;;;;;;;15.52;13.68;;;23.80;99.90;;;;;;5094269;28;20406;-75
2021/06/19 12:11:42;;;;;;;14.82;13.23;;;23.80;99.90;;;;;;5091437;28;20065;-76
2021/06/19 12:14:21;;;;;;;14.13;12.70;;;23.90;99.90;;;;;;5092785;28;20051;-76
2021/06/19 12:16:50;;;;;;;14.27;12.88;;;24.00;99.90;;;;;;5061813;28;20508;-78
2021/06/19 12:19:17;;;;;;;13.77;12.48;;;24.00;99.90;;;;;;5093474;28;20058;-74
2021/06/19 12:21:42;;;;;;;14.75;13.32;;;24.00;99.90;;;;;;5074082;28;20044;-77
2021/06/19 12:24:26;;;;;;;14.20;12.70;;;24.20;99.90;;;;;;5092107;28;20147;-75
2021/06/19 12:27:03;;;;;;;13.55;12.10;;;24.30;99.90;;;;;;5090982;28;20077;-77
2021/06/19 12:29:54;;;;;;;14.98;13.50;;;24.40;99.90;;;;;;5084381;28;20043;-76
2021/06/19 12:32:41;;;;;;;13.18;11.88;;;24.80;99.70;;;;;;5066563;28;20394;-79
2021/06/19 12:35:10;;;;;;;14.52;13.10;;;24.60;99.90;;;;;;5091412;28;20048;-78
2021/06/19 12:37:38;;;;;;;15.50;14.00;;;24.60;99.10;;;;;;5093094;28;20036;-76
2021/06/19 12:40:10;;;;;;;15.43;13.82;;;24.60;98.80;;;;;;5094443;28;20047;-76
2021/06/19 12:42:45;;;;;;;14.55;13.02;;;24.40;99.00;;;;;;5093246;28;20052;-79
2021/06/19 12:45:14;;;;;;;13.27;11.98;;;24.40;99.90;;;;;;5075187;28;20090;-79
2021/06/19 12:47:44;;;;;;;12.60;11.40;;;24.70;99.90;;;;;;5061405;28;20125;-77
2021/06/19 12:50:11;;;;;;;13.90;12.40;;;24.90;99.90;;;;;;5075092;28;20370;-76
2021/06/19 12:52:56;;;;;;;12.23;11.02;;;25.10;97.50;;;;;;5092153;28;20116;-75
2021/06/19 12:55:23;;;;;;;12.63;11.52;;;24.90;96.90;;;;;;5091486;28;20043;-78